Time;durP1;ratioP1;P1;durP2;ratioP2;P2;SDS_P1;SDS_P2;PMS_P1;PMS_P2;Temp;Humidity;BMP_temperature;BMP_pressure;BME280_temperature;BME280_humidity;BME280_pressure;Samples;Min_cycle;Max_cycle;Signal;HPM_P1;HPM_P2
2021/07/10 00:01:30;;;;;;;28.97;11.77;;;15.80;99.90;;;;;;6151446;23;20188;-79
2021/07/10 00:03:57;;;;;;;27.85;12.45;;;15.90;99.90;;;;;;6151780;23;20180;-79
2021/07/10 00:06:24;;;;;;;25.13;12.10;;;15.80;99.90;;;;;;6149148;23;20259;-78
2021/07/10 00:08:52;;;;;;;20.33;11.40;;;15.90;99.90;;;;;;6151959;23;20548;-78
2021/07/10 00:11:19;;;;;;;24.27;12.90;;;15.90;99.90;;;;;;6151446;23;20611;-78
2021/07/10 00:13:46;;;;;;;24.80;11.50;;;15.90;99.90;;;;;;6151791;23;20274;-78
2021/07/10 00:16:13;;;;;;;26.13;12.57;;;15.90;99.90;;;;;;6151489;23;20183;-79
2021/07/10 00:18:40;;;;;;;25.67;11.63;;;15.90;99.90;;;;;;6153231;23;20167;-78
2021/07/10 00:21:07;;;;;;;21.57;11.50;;;15.90;99.90;;;;;;6152817;23;20211;-78
2021/07/10 00:23:35;;;;;;;26.33;14.17;;;15.80;99.90;;;;;;6152350;23;20177;-78
2021/07/10 00:26:03;;;;;;;24.00;11.57;;;15.90;99.90;;;;;;6153557;23;20165;-78
2021/07/10 00:28:30;;;;;;;27.43;12.33;;;15.90;99.90;;;;;;6153511;23;20544;-78
2021/07/10 00:30:57;;;;;;;27.50;13.30;;;16.00;99.90;;;;;;6152942;23;20157;-78
2021/07/10 00:33:24;;;;;;;26.40;11.93;;;16.00;99.90;;;;;;6152427;23;20168;-78
2021/07/10 00:35:50;;;;;;;21.97;12.10;;;15.90;99.90;;;;;;6152854;23;20160;-78
2021/07/10 00:38:17;;;;;;;25.23;13.27;;;15.90;99.90;;;;;;6152586;23;20207;-78
2021/07/10 00:40:44;;;;;;;27.53;13.73;;;15.90;99.90;;;;;;6153500;23;20211;-78
2021/07/10 00:43:13;;;;;;;26.40;13.50;;;16.00;99.90;;;;;;6153136;23;20171;-78
2021/07/10 00:45:40;;;;;;;23.73;13.65;;;16.00;99.90;;;;;;6153971;23;20171;-78
2021/07/10 00:48:07;;;;;;;29.67;13.70;;;16.00;99.90;;;;;;6153876;23;20551;-78
2021/07/10 00:50:34;;;;;;;21.83;14.23;;;16.00;99.90;;;;;;6153118;23;20171;-78
2021/07/10 00:53:00;;;;;;;24.00;14.77;;;15.90;99.90;;;;;;6153219;23;20430;-78
2021/07/10 00:58:00;;;;;;;26.80;13.07;;;15.90;99.90;;;;;;6149793;23;20204;-74
2021/07/10 01:00:29;;;;;;;22.50;14.37;;;15.90;99.90;;;;;;6151545;23;20185;-74
2021/07/10 01:02:56;;;;;;;30.57;14.80;;;15.90;99.90;;;;;;6152636;23;20328;-74
2021/07/10 01:05:25;;;;;;;26.35;14.73;;;15.90;99.90;;;;;;6149334;23;20536;-74
2021/07/10 01:07:52;;;;;;;40.10;15.68;;;15.90;99.90;;;;;;6152599;23;20583;-74
2021/07/10 01:10:19;;;;;;;30.63;14.68;;;15.80;99.90;;;;;;6151952;23;20160;-74
2021/07/10 01:12:49;;;;;;;31.63;13.80;;;15.90;99.90;;;;;;6152519;23;20476;-74
2021/07/10 01:15:18;;;;;;;37.90;14.53;;;15.90;99.90;;;;;;6151878;23;20260;-74
2021/07/10 01:17:46;;;;;;;34.60;14.03;;;15.80;99.90;;;;;;6152240;23;20484;-74
2021/07/10 01:20:15;;;;;;;31.30;15.07;;;15.80;99.90;;;;;;6151371;23;20176;-74
2021/07/10 01:22:45;;;;;;;29.70;14.13;;;15.80;99.90;;;;;;6151892;23;20169;-74
2021/07/10 01:25:15;;;;;;;26.97;13.23;;;15.90;99.90;;;;;;6151952;23;20171;-74
2021/07/10 01:27:43;;;;;;;20.47;13.57;;;15.90;99.90;;;;;;6151536;23;20177;-74
2021/07/10 01:30:12;;;;;;;27.67;13.43;;;15.80;99.90;;;;;;6151378;23;20165;-74
2021/07/10 01:32:43;;;;;;;26.67;13.13;;;15.80;99.90;;;;;;6152074;23;20175;-74
2021/07/10 01:35:11;;;;;;;24.20;13.90;;;15.80;99.90;;;;;;6151524;23;20247;-73
2021/07/10 01:37:42;;;;;;;27.67;13.90;;;15.80;99.90;;;;;;6152629;23;20492;-74
2021/07/10 01:40:12;;;;;;;22.67;13.93;;;15.80;99.90;;;;;;6150595;23;20169;-74
2021/07/10 01:42:40;;;;;;;20.27;12.53;;;15.80;99.90;;;;;;6152158;23;20172;-74
2021/07/10 01:45:07;;;;;;;19.87;12.73;;;15.90;99.90;;;;;;6151709;23;20256;-74
2021/07/10 01:47:34;;;;;;;20.97;13.67;;;15.90;99.90;;;;;;6151897;23;20164;-74
2021/07/10 01:50:01;;;;;;;20.63;13.23;;;16.00;99.90;;;;;;6150701;23;20165;-74
2021/07/10 01:52:28;;;;;;;21.93;14.47;;;15.90;99.90;;;;;;6150921;23;20168;-74
2021/07/10 01:54:54;;;;;;;24.23;14.20;;;16.00;99.90;;;;;;6151955;23;20164;-74
2021/07/10 01:57:23;;;;;;;28.83;15.18;;;15.90;99.90;;;;;;6151225;23;20192;-74
2021/07/10 01:59:49;;;;;;;26.40;15.00;;;16.00;99.90;;;;;;6152165;23;20171;-74
2021/07/10 02:02:16;;;;;;;26.60;14.80;;;15.90;99.90;;;;;;6152128;23;20208;-74
2021/07/10 02:04:47;;;;;;;24.60;14.52;;;15.90;99.90;;;;;;6150539;23;20491;-74
2021/07/10 02:07:15;;;;;;;22.67;14.18;;;15.90;99.90;;;;;;6151428;23;20167;-74
2021/07/10 02:09:42;;;;;;;22.30;13.98;;;16.00;99.90;;;;;;6151864;23;20479;-74
2021/07/10 02:12:09;;;;;;;28.65;14.85;;;15.90;99.90;;;;;;6151867;23;20164;-74
2021/07/10 02:14:37;;;;;;;38.93;15.27;;;15.80;99.90;;;;;;6152573;23;20679;-74
2021/07/10 02:17:05;;;;;;;47.70;14.40;;;15.80;99.90;;;;;;6152225;23;20164;-74
2021/07/10 02:19:32;;;;;;;41.17;14.67;;;15.80;99.90;;;;;;6152543;23;20165;-74
2021/07/10 02:21:58;;;;;;;37.90;15.33;;;15.80;99.90;;;;;;6152043;23;20666;-74
2021/07/10 02:24:25;;;;;;;24.55;14.15;;;15.60;99.90;;;;;;6152041;23;20529;-74
2021/07/10 02:26:52;;;;;;;25.73;14.90;;;15.70;99.90;;;;;;6150969;23;20162;-74
2021/07/10 02:29:19;;;;;;;20.70;13.50;;;15.70;99.90;;;;;;6151042;23;20313;-74
2021/07/10 02:31:47;;;;;;;22.37;14.03;;;15.60;99.90;;;;;;6149819;23;20157;-74
2021/07/10 02:34:14;;;;;;;21.83;13.45;;;15.60;99.90;;;;;;6150774;23;20175;-74
2021/07/10 02:36:41;;;;;;;25.47;14.20;;;15.60;99.90;;;;;;6151492;23;20167;-74
2021/07/10 02:39:08;;;;;;;21.70;12.90;;;15.50;99.90;;;;;;6151675;23;20261;-74
2021/07/10 02:41:34;;;;;;;21.80;13.03;;;15.40;99.90;;;;;;6151552;23;20188;-74
2021/07/10 02:44:02;;;;;;;24.27;14.37;;;15.40;99.90;;;;;;6152494;23;20172;-74
2021/07/10 02:46:29;;;;;;;22.43;14.20;;;15.40;99.90;;;;;;6152170;23;20451;-74
2021/07/10 02:48:58;;;;;;;24.67;14.60;;;15.30;99.90;;;;;;6152722;23;20629;-74
2021/07/10 02:51:26;;;;;;;24.00;14.13;;;15.30;99.90;;;;;;6152109;23;20196;-74
2021/07/10 02:53:53;;;;;;;22.37;14.23;;;15.40;99.90;;;;;;6152441;23;20487;-74
2021/07/10 02:56:21;;;;;;;21.27;13.87;;;15.40;99.90;;;;;;6151584;23;20456;-74
2021/07/10 02:58:47;;;;;;;25.87;14.90;;;15.40;99.90;;;;;;6152216;23;20164;-74
2021/07/10 03:01:14;;;;;;;22.43;13.70;;;15.40;99.90;;;;;;6151880;23;20267;-74
2021/07/10 03:03:41;;;;;;;27.00;14.80;;;15.30;99.90;;;;;;6151653;23;20164;-74
2021/07/10 03:06:09;;;;;;;27.90;14.93;;;15.30;99.90;;;;;;6149821;23;20181;-74
2021/07/10 03:08:36;;;;;;;26.10;15.47;;;15.30;99.90;;;;;;6152454;23;20162;-74
2021/07/10 03:11:05;;;;;;;29.67;15.37;;;15.20;99.90;;;;;;6151798;23;20161;-70
2021/07/10 03:13:32;;;;;;;23.43;14.30;;;15.20;99.90;;;;;;6151965;23;20160;-71
2021/07/10 03:15:59;;;;;;;26.03;14.93;;;15.20;99.90;;;;;;6152031;23;20173;-71
2021/07/10 03:18:26;;;;;;;22.70;13.23;;;15.20;99.90;;;;;;6152500;23;20472;-71
2021/07/10 03:20:53;;;;;;;22.07;13.67;;;15.10;99.90;;;;;;6151880;23;20647;-71
2021/07/10 03:23:21;;;;;;;23.80;14.80;;;15.00;99.90;;;;;;6151936;23;20164;-71
2021/07/10 03:25:48;;;;;;;22.73;15.33;;;15.00;99.90;;;;;;6151980;23;20455;-71
2021/07/10 03:28:15;;;;;;;21.30;13.70;;;15.10;99.90;;;;;;6152691;23;20165;-71
2021/07/10 03:30:42;;;;;;;24.83;13.80;;;15.10;99.90;;;;;;6152131;23;20651;-71
2021/07/10 03:33:09;;;;;;;22.13;13.40;;;15.10;99.90;;;;;;6152197;23;20171;-71
2021/07/10 03:35:36;;;;;;;25.63;14.47;;;15.00;99.90;;;;;;6151870;23;20165;-71
2021/07/10 03:38:03;;;;;;;25.10;14.37;;;15.20;99.90;;;;;;6152084;23;20187;-71
2021/07/10 03:40:31;;;;;;;27.47;14.57;;;15.10;99.90;;;;;;6151836;23;20552;-71
2021/07/10 03:42:58;;;;;;;25.33;15.47;;;15.10;99.90;;;;;;6152337;23;20764;-71
2021/07/10 03:45:26;;;;;;;21.03;13.70;;;15.10;99.90;;;;;;6152276;23;20600;-71
2021/07/10 03:47:53;;;;;;;23.80;14.23;;;15.00;99.90;;;;;;6151707;23;20171;-71
2021/07/10 03:50:21;;;;;;;21.47;13.77;;;15.10;99.90;;;;;;6152194;23;20206;-71
2021/07/10 03:52:48;;;;;;;24.50;14.50;;;15.10;99.90;;;;;;6153667;23;20167;-71
2021/07/10 03:55:16;;;;;;;23.53;14.07;;;15.10;99.90;;;;;;6153519;23;20505;-71
2021/07/10 03:57:45;;;;;;;21.43;14.30;;;15.10;99.90;;;;;;6153450;23;20184;-71
2021/07/10 04:00:15;;;;;;;22.53;13.30;;;15.20;99.90;;;;;;6153713;23;20600;-71
2021/07/10 04:02:42;;;;;;;26.33;14.40;;;15.20;99.90;;;;;;6152265;23;20185;-70
2021/07/10 04:05:10;;;;;;;22.77;13.37;;;15.20;99.90;;;;;;6151230;23;20446;-71
2021/07/10 04:07:37;;;;;;;22.10;14.03;;;15.30;99.90;;;;;;6153422;23;20172;-71
2021/07/10 04:10:06;;;;;;;23.50;14.60;;;15.30;99.90;;;;;;6152404;23;20171;-71
2021/07/10 04:12:33;;;;;;;24.40;14.17;;;15.30;99.90;;;;;;6152838;23;20167;-71
2021/07/10 04:15:01;;;;;;;18.88;12.90;;;15.60;99.90;;;;;;6152177;23;20171;-71
2021/07/10 04:17:29;;;;;;;21.83;13.45;;;15.80;99.90;;;;;;6152920;23;20165;-71
2021/07/10 04:19:56;;;;;;;19.10;12.57;;;16.00;99.90;;;;;;6152842;23;20165;-71
2021/07/10 04:22:24;;;;;;;20.70;11.87;;;16.30;99.90;;;;;;6152129;23;20188;-70
2021/07/10 04:24:51;;;;;;;21.80;12.07;;;16.50;99.90;;;;;;6153689;23;20492;-72
2021/07/10 04:27:18;;;;;;;20.80;11.73;;;16.40;99.90;;;;;;6153981;23;20591;-71
2021/07/10 04:29:48;;;;;;;19.10;12.15;;;16.60;99.90;;;;;;6153590;23;20161;-71
2021/07/10 04:32:16;;;;;;;21.83;12.05;;;16.40;99.90;;;;;;6153544;23;20247;-72
2021/07/10 04:34:43;;;;;;;17.83;11.37;;;16.30;99.90;;;;;;6153960;23;20176;-71
2021/07/10 04:37:10;;;;;;;18.10;11.57;;;16.00;99.90;;;;;;6153299;23;20168;-71
2021/07/10 04:39:36;;;;;;;17.95;12.20;;;15.90;99.90;;;;;;6153286;23;20184;-71
2021/07/10 04:42:04;;;;;;;17.55;12.00;;;16.00;99.90;;;;;;6153590;23;20184;-71
2021/07/10 04:44:31;;;;;;;20.38;12.02;;;16.10;99.90;;;;;;6154002;23;20165;-71
2021/07/10 04:46:58;;;;;;;20.40;11.70;;;15.90;99.90;;;;;;6153605;23;20160;-72
2021/07/10 04:49:26;;;;;;;16.50;11.13;;;16.00;99.90;;;;;;6153788;23;20613;-71
2021/07/10 04:51:53;;;;;;;18.83;11.77;;;15.90;99.90;;;;;;6153474;23;20587;-72
2021/07/10 04:54:19;;;;;;;18.55;11.55;;;16.10;99.90;;;;;;6153437;23;20602;-71
2021/07/10 04:56:46;;;;;;;19.67;11.93;;;16.10;99.90;;;;;;6152960;23;20195;-71
2021/07/10 04:59:13;;;;;;;18.52;10.95;;;16.00;99.90;;;;;;6153246;23;20479;-71
2021/07/10 05:01:40;;;;;;;18.58;12.23;;;16.00;99.90;;;;;;6152841;23;20185;-72
2021/07/10 05:04:07;;;;;;;19.10;10.95;;;16.20;99.90;;;;;;6152781;23;20165;-71
2021/07/10 05:06:35;;;;;;;18.38;12.82;;;16.30;99.90;;;;;;6150939;23;20191;-72
2021/07/10 05:09:02;;;;;;;23.25;13.43;;;16.60;99.90;;;;;;6153395;23;20251;-70
2021/07/10 05:11:29;;;;;;;22.00;13.00;;;17.20;99.90;;;;;;6152954;23;20169;-70
2021/07/10 05:13:55;;;;;;;25.55;13.38;;;17.30;99.90;;;;;;6153461;23;20169;-70
2021/07/10 05:16:22;;;;;;;26.08;15.77;;;17.30;99.90;;;;;;6152849;23;20161;-70
2021/07/10 05:18:49;;;;;;;23.95;14.68;;;17.00;99.90;;;;;;6153165;23;20171;-69
2021/07/10 05:21:16;;;;;;;24.40;15.00;;;17.20;99.90;;;;;;6152963;23;20179;-70
2021/07/10 05:23:44;;;;;;;21.13;14.73;;;17.00;99.90;;;;;;6153214;23;20485;-70
2021/07/10 05:26:11;;;;;;;25.02;16.13;;;16.90;99.90;;;;;;6153248;23;20168;-70
2021/07/10 05:28:38;;;;;;;22.13;15.70;;;17.00;99.90;;;;;;6153042;23;20171;-70
2021/07/10 05:31:05;;;;;;;23.42;14.55;;;17.00;99.90;;;;;;6152597;23;20567;-70
2021/07/10 05:33:32;;;;;;;25.17;15.20;;;17.00;99.90;;;;;;6153177;23;20239;-70
2021/07/10 05:35:59;;;;;;;21.50;15.18;;;17.30;99.90;;;;;;6153012;23;20252;-70
2021/07/10 05:38:26;;;;;;;24.13;14.75;;;17.40;99.90;;;;;;6153137;23;20171;-70
2021/07/10 05:40:54;;;;;;;22.60;13.90;;;17.40;99.90;;;;;;6153446;23;20169;-70
2021/07/10 05:43:23;;;;;;;20.60;13.00;;;17.20;99.90;;;;;;6152465;23;20189;-70
2021/07/10 05:45:50;;;;;;;22.52;14.30;;;17.30;99.90;;;;;;6153315;23;20164;-70
2021/07/10 05:48:17;;;;;;;22.73;14.25;;;17.50;99.90;;;;;;6152898;23;20169;-70
2021/07/10 05:50:44;;;;;;;18.73;12.77;;;18.00;99.90;;;;;;6153412;23;20598;-70
2021/07/10 05:53:11;;;;;;;19.05;12.50;;;18.40;99.90;;;;;;6153152;23;20160;-70
2021/07/10 05:55:38;;;;;;;18.33;12.25;;;19.10;99.90;;;;;;6152665;23;20171;-70
2021/07/10 05:58:07;;;;;;;19.63;12.98;;;18.70;99.90;;;;;;6152288;23;20191;-69
2021/07/10 06:00:34;;;;;;;19.05;12.27;;;18.90;99.90;;;;;;6152336;23;20164;-70
2021/07/10 06:03:01;;;;;;;21.15;12.10;;;18.30;99.90;;;;;;6152754;23;20193;-69
2021/07/10 06:05:28;;;;;;;17.65;11.05;;;18.00;99.90;;;;;;6150347;23;20180;-70
2021/07/10 06:07:54;;;;;;;16.58;10.77;;;17.80;99.90;;;;;;6152792;23;20496;-69
2021/07/10 06:10:22;;;;;;;14.23;10.88;;;17.70;99.90;;;;;;6152536;23;20171;-70
2021/07/10 06:12:50;;;;;;;15.07;10.88;;;17.80;99.90;;;;;;6152515;23;20161;-70
2021/07/10 06:15:18;;;;;;;18.52;12.18;;;17.70;99.90;;;;;;6152272;23;20169;-70
2021/07/10 06:17:45;;;;;;;17.83;11.65;;;17.80;99.90;;;;;;6152827;23;20165;-70
2021/07/10 06:20:15;;;;;;;14.73;10.75;;;17.70;99.90;;;;;;6152175;23;20160;-70
2021/07/10 06:22:43;;;;;;;16.70;11.25;;;17.70;99.90;;;;;;6152413;23;20184;-70
2021/07/10 06:25:11;;;;;;;18.20;12.40;;;17.60;99.90;;;;;;6152673;23;20465;-70
2021/07/10 06:27:38;;;;;;;14.32;9.85;;;17.70;99.90;;;;;;6152124;23;20171;-70
2021/07/10 06:30:06;;;;;;;14.15;10.55;;;17.40;99.90;;;;;;6152528;23;20486;-70
2021/07/10 06:32:34;;;;;;;13.38;9.88;;;17.50;99.90;;;;;;6152184;23;20161;-70
2021/07/10 06:35:01;;;;;;;16.10;10.70;;;17.60;99.90;;;;;;6152765;23;20165;-70
2021/07/10 06:37:28;;;;;;;15.75;10.45;;;17.70;99.90;;;;;;6152337;23;20169;-70
2021/07/10 06:39:54;;;;;;;15.20;10.95;;;17.70;99.90;;;;;;6152456;23;20171;-70
2021/07/10 06:42:22;;;;;;;16.98;11.32;;;17.70;99.90;;;;;;6152647;23;20195;-71
2021/07/10 06:44:49;;;;;;;16.52;10.50;;;17.80;99.90;;;;;;6152790;23;20164;-71
2021/07/10 06:47:18;;;;;;;15.07;11.18;;;17.90;99.90;;;;;;6152679;23;20550;-71
2021/07/10 06:49:46;;;;;;;11.85;8.63;;;18.10;99.90;;;;;;6152068;23;20228;-71
2021/07/10 06:52:14;;;;;;;13.90;10.07;;;17.90;99.90;;;;;;6152159;23;20171;-71
2021/07/10 06:54:41;;;;;;;13.30;9.82;;;17.90;99.90;;;;;;6152350;23;20164;-70
2021/07/10 06:57:08;;;;;;;16.35;11.07;;;18.10;99.90;;;;;;6151689;23;20214;-72
2021/07/10 06:59:34;;;;;;;14.75;9.75;;;18.10;99.90;;;;;;6180962;23;20556;-72
2021/07/10 07:02:01;;;;;;;14.88;10.15;;;18.00;99.90;;;;;;6181400;23;20455;-72
2021/07/10 07:04:28;;;;;;;15.73;10.05;;;18.00;99.90;;;;;;6179425;23;20594;-72
2021/07/10 07:06:56;;;;;;;15.90;10.88;;;18.10;99.90;;;;;;6181216;23;20164;-72
2021/07/10 07:09:23;;;;;;;17.52;11.20;;;18.30;99.90;;;;;;6180928;23;20171;-72
2021/07/10 07:11:51;;;;;;;14.77;10.13;;;18.30;99.90;;;;;;6180619;23;20479;-72
2021/07/10 07:14:18;;;;;;;16.02;10.13;;;18.10;99.90;;;;;;6181271;23;20634;-71
2021/07/10 07:16:45;;;;;;;14.48;9.75;;;18.10;99.90;;;;;;6181011;23;20164;-72
2021/07/10 07:19:12;;;;;;;12.80;9.30;;;18.10;99.90;;;;;;6181366;23;20246;-71
2021/07/10 07:21:39;;;;;;;14.98;10.48;;;18.10;99.90;;;;;;6178221;23;20164;-71
2021/07/10 07:24:08;;;;;;;14.07;9.70;;;18.20;99.90;;;;;;6180684;23;20183;-71
2021/07/10 07:26:35;;;;;;;16.00;10.63;;;18.50;99.90;;;;;;6182887;23;20168;-71
2021/07/10 07:29:02;;;;;;;14.15;10.45;;;18.60;99.90;;;;;;6183427;23;20170;-71
2021/07/10 07:31:29;;;;;;;17.30;10.65;;;18.60;99.90;;;;;;6183550;23;20602;-71
2021/07/10 07:33:56;;;;;;;16.40;11.13;;;18.70;99.90;;;;;;6183081;23;20591;-71
2021/07/10 07:36:24;;;;;;;14.40;10.32;;;18.60;99.90;;;;;;6183147;23;20171;-71
2021/07/10 07:38:51;;;;;;;14.25;9.85;;;18.50;99.90;;;;;;6182699;23;20247;-71
2021/07/10 07:41:19;;;;;;;12.45;8.80;;;18.60;99.90;;;;;;6182673;23;20453;-71
2021/07/10 07:43:46;;;;;;;13.63;8.90;;;18.50;99.90;;;;;;6183159;23;20187;-71
2021/07/10 07:46:15;;;;;;;11.60;8.20;;;18.40;99.90;;;;;;6183414;23;20174;-71
2021/07/10 07:48:43;;;;;;;14.15;9.38;;;18.70;99.90;;;;;;6183311;23;20251;-71
2021/07/10 07:51:10;;;;;;;13.20;9.05;;;19.00;99.90;;;;;;6182258;23;20218;-71
2021/07/10 07:53:37;;;;;;;12.25;8.82;;;19.10;99.90;;;;;;6182760;23;20164;-71
2021/07/10 07:56:05;;;;;;;12.18;8.20;;;19.10;99.90;;;;;;6182435;23;20168;-71
2021/07/10 07:58:33;;;;;;;15.43;9.38;;;19.30;99.90;;;;;;6182691;23;20193;-71
2021/07/10 08:01:00;;;;;;;12.65;8.95;;;19.30;99.90;;;;;;6182242;23;20163;-71
2021/07/10 08:03:27;;;;;;;11.30;8.00;;;19.30;99.90;;;;;;6182481;23;20190;-71
2021/07/10 08:05:54;;;;;;;14.20;8.80;;;19.50;99.90;;;;;;6180368;23;20180;-71
2021/07/10 08:08:21;;;;;;;14.88;9.05;;;19.60;99.90;;;;;;6182729;23;20160;-71
2021/07/10 08:10:48;;;;;;;11.43;9.00;;;19.70;99.90;;;;;;6181921;23;20242;-71
2021/07/10 08:13:14;;;;;;;12.25;8.85;;;19.70;99.90;;;;;;6182917;23;20504;-71
2021/07/10 08:15:43;;;;;;;11.23;8.45;;;19.80;99.90;;;;;;6183195;23;20583;-71
2021/07/10 08:18:10;;;;;;;14.65;9.70;;;19.40;99.90;;;;;;6182362;23;20171;-71
2021/07/10 08:20:37;;;;;;;12.18;8.73;;;19.40;99.90;;;;;;6183293;23;20164;-71
2021/07/10 08:23:04;;;;;;;11.73;8.57;;;19.60;99.90;;;;;;6183237;23;20560;-71
2021/07/10 08:25:32;;;;;;;13.57;9.15;;;19.50;99.90;;;;;;6183034;23;20480;-71
2021/07/10 08:27:59;;;;;;;13.38;9.82;;;19.60;99.90;;;;;;6182918;23;20395;-71
2021/07/10 08:30:27;;;;;;;14.15;9.80;;;19.60;99.90;;;;;;6182411;23;20164;-71
2021/07/10 08:32:55;;;;;;;14.00;9.68;;;19.90;99.90;;;;;;6182674;23;20166;-71
2021/07/10 08:35:22;;;;;;;14.35;9.88;;;20.00;99.90;;;;;;6182859;23;20195;-71
2021/07/10 08:37:50;;;;;;;14.80;10.57;;;20.30;99.90;;;;;;6181940;23;20168;-71
2021/07/10 08:40:17;;;;;;;15.02;10.07;;;20.20;99.90;;;;;;6181887;23;20646;-71
2021/07/10 08:42:44;;;;;;;14.77;10.30;;;20.40;99.90;;;;;;6183019;23;20184;-71
2021/07/10 08:45:13;;;;;;;13.63;9.77;;;20.50;99.90;;;;;;6182346;23;20168;-72
2021/07/10 08:47:42;;;;;;;13.70;9.82;;;20.50;99.90;;;;;;6182216;23;20164;-72
2021/07/10 08:50:12;;;;;;;11.20;8.27;;;20.50;99.90;;;;;;6182903;23;20167;-72
2021/07/10 08:52:39;;;;;;;13.63;10.00;;;20.60;99.90;;;;;;6182749;23;20273;-72
2021/07/10 08:55:08;;;;;;;18.20;10.02;;;20.70;99.90;;;;;;6182408;23;20164;-72
2021/07/10 08:57:36;;;;;;;13.20;8.90;;;20.50;99.90;;;;;;6182810;23;20202;-72
2021/07/10 09:00:06;;;;;;;11.95;9.32;;;20.40;99.90;;;;;;6182891;23;20223;-72
2021/07/10 09:02:34;;;;;;;15.52;10.63;;;20.80;99.90;;;;;;6182037;23;20174;-72
2021/07/10 09:05:02;;;;;;;15.50;10.63;;;21.20;99.90;;;;;;6180864;23;20855;-72
2021/07/10 09:07:30;;;;;;;16.25;10.48;;;21.70;99.90;;;;;;6182512;23;20164;-72
2021/07/10 09:09:57;;;;;;;15.73;10.32;;;21.00;99.90;;;;;;6182940;23;20646;-72
2021/07/10 09:12:31;;;;;;;17.52;11.73;;;21.00;99.90;;;;;;6183340;23;20665;-72
2021/07/10 09:15:17;;;;;;;15.57;10.70;;;20.60;99.90;;;;;;6183209;23;20604;-72
2021/07/10 09:17:46;;;;;;;15.52;11.40;;;20.70;99.90;;;;;;6182156;23;20167;-72
2021/07/10 09:20:20;;;;;;;19.55;12.50;;;20.70;99.90;;;;;;6182560;23;20164;-72
2021/07/10 09:22:49;;;;;;;16.80;11.25;;;20.50;99.90;;;;;;6182506;23;20163;-72
2021/07/10 09:25:24;;;;;;;15.98;11.77;;;20.60;99.90;;;;;;6181986;23;20168;-72
2021/07/10 09:27:52;;;;;;;14.55;10.70;;;20.80;99.90;;;;;;6183142;23;20163;-72
2021/07/10 09:30:33;;;;;;;16.38;11.95;;;21.20;99.90;;;;;;6182381;23;20164;-72
2021/07/10 09:33:14;;;;;;;15.93;11.60;;;21.80;99.90;;;;;;6182714;23;20160;-72
2021/07/10 09:36:00;;;;;;;15.32;10.40;;;22.30;99.90;;;;;;6182840;23;20278;-72
2021/07/10 09:38:31;;;;;;;16.38;12.07;;;23.10;99.90;;;;;;6182567;23;20167;-72
2021/07/10 09:41:01;;;;;;;13.60;10.73;;;22.60;99.90;;;;;;6182463;23;20219;-71
2021/07/10 09:43:30;;;;;;;16.98;11.82;;;22.30;99.90;;;;;;6182691;23;20184;-76
2021/07/10 09:45:59;;;;;;;16.40;11.82;;;22.30;99.90;;;;;;6181593;23;20160;-76
2021/07/10 09:48:28;;;;;;;15.18;11.00;;;22.70;99.90;;;;;;6182298;23;20492;-76
2021/07/10 09:51:21;;;;;;;14.80;11.43;;;23.20;99.90;;;;;;6181441;23;20179;-75
2021/07/10 09:54:05;;;;;;;12.88;10.38;;;23.10;99.90;;;;;;6182106;23;20162;-76
2021/07/10 09:56:34;;;;;;;14.02;9.93;;;23.70;99.90;;;;;;6182017;23;20168;-76
2021/07/10 09:59:17;;;;;;;16.40;10.80;;;24.00;99.90;;;;;;6181407;23;20190;-75
2021/07/10 10:01:45;;;;;;;14.07;10.80;;;23.90;99.90;;;;;;6181514;23;20176;-75
2021/07/10 10:04:25;;;;;;;14.88;10.70;;;24.10;99.90;;;;;;6181704;23;20184;-75
2021/07/10 10:06:54;;;;;;;12.82;10.90;;;23.90;99.90;;;;;;6181215;23;20544;-75
2021/07/10 10:09:24;;;;;;;14.73;10.95;;;23.90;99.90;;;;;;6181654;23;20164;-76
2021/07/10 10:11:59;;;;;;;12.40;10.00;;;23.50;99.90;;;;;;6181141;23;20180;-75
2021/07/10 10:14:28;;;;;;;15.00;10.75;;;23.90;99.90;;;;;;6181129;23;20598;-76
2021/07/10 10:16:55;;;;;;;12.48;10.20;;;24.10;99.90;;;;;;6181464;23;20484;-75
2021/07/10 10:19:23;;;;;;;13.40;9.40;;;24.00;99.90;;;;;;6181339;23;20164;-75
2021/07/10 10:21:52;;;;;;;12.13;8.90;;;24.80;99.90;;;;;;6181377;23;20243;-76
2021/07/10 10:24:20;;;;;;;14.02;8.77;;;25.20;99.90;;;;;;6181276;23;20586;-76
2021/07/10 10:26:49;;;;;;;11.80;8.90;;;25.50;99.90;;;;;;6181615;23;20168;-76
2021/07/10 10:29:20;;;;;;;11.18;8.30;;;24.80;99.90;;;;;;6179675;23;20164;-76
2021/07/10 10:31:48;;;;;;;9.68;7.85;;;25.00;99.90;;;;;;6182073;23;20167;-76
2021/07/10 10:34:15;;;;;;;10.85;7.85;;;25.10;99.90;;;;;;6182788;23;20160;-76
2021/07/10 10:36:44;;;;;;;11.02;7.88;;;24.80;99.90;;;;;;6183532;23;20239;-76
2021/07/10 10:39:14;;;;;;;8.98;7.85;;;25.00;99.90;;;;;;6182701;23;20500;-76
2021/07/10 10:41:43;;;;;;;7.72;6.75;;;25.00;99.90;;;;;;6183619;23;20235;-75
2021/07/10 10:44:12;;;;;;;9.45;7.05;;;25.30;99.90;;;;;;6183429;23;20432;-76
2021/07/10 10:46:51;;;;;;;8.75;6.85;;;25.00;99.90;;;;;;6183022;23;20166;-76
2021/07/10 10:49:46;;;;;;;10.70;7.43;;;24.90;99.90;;;;;;6156295;23;20179;-75
2021/07/10 10:52:44;;;;;;;8.57;6.53;;;25.70;99.90;;;;;;6182584;23;20171;-76
2021/07/10 10:55:14;;;;;;;8.95;6.70;;;25.30;99.90;;;;;;6183561;23;20565;-76
2021/07/10 10:57:47;;;;;;;9.63;6.30;;;25.80;99.90;;;;;;6183825;23;20689;-75
2021/07/10 11:00:28;;;;;;;8.55;6.25;;;25.70;99.90;;;;;;6183076;23;20160;-76
2021/07/10 11:02:58;;;;;;;9.20;7.20;;;25.50;99.90;;;;;;6183241;23;20164;-76
2021/07/10 11:05:45;;;;;;;7.97;6.20;;;25.20;99.90;;;;;;6183519;23;20626;-75
2021/07/10 11:08:52;;;;;;;6.45;5.47;;;25.80;99.90;;;;;;6183983;23;20164;-76
2021/07/10 11:11:41;;;;;;;7.20;5.82;;;25.90;99.90;;;;;;6183931;23;20164;-76
2021/07/10 11:14:16;;;;;;;6.25;5.60;;;26.50;99.90;;;;;;6182422;23;20242;-76
2021/07/10 11:17:08;;;;;;;7.72;6.43;;;26.20;99.90;;;;;;6182300;23;20183;-72
2021/07/10 11:19:56;;;;;;;10.23;6.40;;;25.50;99.90;;;;;;6180620;23;20164;-76
2021/07/10 11:23:01;;;;;;;8.05;6.05;;;25.00;99.90;;;;;;6179726;23;20278;-72
2021/07/10 11:25:59;;;;;;;6.78;6.05;;;25.20;99.90;;;;;;6180151;23;20226;-72
2021/07/10 11:28:29;;;;;;;6.57;5.28;;;24.80;99.90;;;;;;6132486;23;20738;-72
2021/07/10 11:30:58;;;;;;;8.55;6.15;;;26.10;99.90;;;;;;6180358;23;20215;-72
2021/07/10 11:34:02;;;;;;;7.93;6.18;;;26.10;99.90;;;;;;6183614;23;20591;-72
2021/07/10 11:36:53;;;;;;;5.95;5.13;;;25.70;99.90;;;;;;6183149;23;20474;-72
2021/07/10 11:39:53;;;;;;;7.03;5.60;;;26.40;99.90;;;;;;6182913;23;20235;-72
2021/07/10 11:42:37;;;;;;;7.35;5.95;;;26.10;99.90;;;;;;6183001;23;20156;-72
2021/07/10 11:45:29;;;;;;;7.72;6.00;;;25.90;99.90;;;;;;6182657;23;20195;-72
2021/07/10 11:47:59;;;;;;;7.65;6.25;;;26.30;99.90;;;;;;6182835;23;20164;-72
2021/07/10 11:50:28;;;;;;;6.93;6.22;;;26.10;99.90;;;;;;6182796;23;20205;-72
2021/07/10 11:53:08;;;;;;;7.07;5.93;;;25.50;99.90;;;;;;6183450;23;20160;-72
2021/07/10 11:55:36;;;;;;;13.77;11.50;;;25.50;99.90;;;;;;6183066;23;20166;-72
2021/07/10 11:58:07;;;;;;;9.15;7.07;;;25.90;99.90;;;;;;6182527;23;20242;-72
2021/07/10 12:00:34;;;;;;;9.85;6.80;;;26.40;99.90;;;;;;6182399;23;20160;-72
2021/07/10 12:03:01;;;;;;;9.25;6.72;;;26.70;99.90;;;;;;6182919;23;20163;-72
2021/07/10 12:05:30;;;;;;;10.02;6.00;;;26.10;99.90;;;;;;6182597;23;20234;-72
2021/07/10 12:07:59;;;;;;;6.82;5.72;;;26.50;99.90;;;;;;6182745;23;20232;-72
2021/07/10 12:10:29;;;;;;;6.35;5.65;;;25.80;99.90;;;;;;6182332;23;20187;-72
2021/07/10 12:12:58;;;;;;;9.30;6.15;;;26.10;99.90;;;;;;6184664;23;20164;-72
2021/07/10 12:15:26;;;;;;;6.57;5.88;;;26.60;99.90;;;;;;6185026;23;20160;-72
2021/07/10 12:17:55;;;;;;;8.23;6.55;;;26.50;99.90;;;;;;6185214;23;20180;-72
2021/07/10 12:20:25;;;;;;;9.50;6.03;;;26.30;99.90;;;;;;6184246;23;20554;-72
2021/07/10 12:22:55;;;;;;;7.53;5.97;;;26.70;99.90;;;;;;6184561;23;20156;-72
2021/07/10 12:25:25;;;;;;;8.23;6.25;;;26.40;99.90;;;;;;6184315;23;20700;-72
2021/07/10 12:27:56;;;;;;;7.22;6.30;;;26.10;99.90;;;;;;6184489;23;20589;-72
2021/07/10 12:30:40;;;;;;;7.63;6.00;;;26.20;99.90;;;;;;6184541;23;20230;-72
2021/07/10 12:33:43;;;;;;;7.43;5.90;;;26.00;99.90;;;;;;6184303;23;20538;-72
2021/07/10 12:36:28;;;;;;;7.18;5.75;;;25.70;99.90;;;;;;6184628;23;20156;-72
2021/07/10 12:39:11;;;;;;;8.10;6.63;;;25.40;99.90;;;;;;6184247;23;20168;-72
2021/07/10 12:41:47;;;;;;;8.70;6.50;;;25.00;99.90;;;;;;6184899;23;20239;-72
2021/07/10 12:44:28;;;;;;;9.18;6.20;;;25.10;99.90;;;;;;6158237;23;20249;-72
2021/07/10 12:47:07;;;;;;;8.88;6.32;;;25.60;99.90;;;;;;6186131;23;20492;-72